Time;durP1;ratioP1;P1;durP2;ratioP2;P2;SDS_P1;SDS_P2;PMS_P1;PMS_P2;Temp;Humidity;BMP_temperature;BMP_pressure;BME280_temperature;BME280_humidity;BME280_pressure;Samples;Min_cycle;Max_cycle;Signal;HPM_P1;HPM_P2
2022/04/22 00:01:19;;;;;;;30.52;22.15;;;;;;;;;;5015935;28;20034;-75
2022/04/22 00:03:48;;;;;;;31.38;22.73;;;;;;;;;;5016202;28;20124;-75
2022/04/22 00:06:17;;;;;;;30.10;21.95;;;;;;;;;;5015652;28;20496;-75
2022/04/22 00:08:49;;;;;;;32.35;22.55;;;;;;;;;;5016228;28;20144;-75
2022/04/22 00:11:29;;;;;;;29.70;21.92;;;;;;;;;;5015535;28;20129;-75
2022/04/22 00:14:01;;;;;;;28.90;21.05;;;;;;;;;;5015722;28;20436;-74
2022/04/22 00:16:35;;;;;;;29.23;20.02;;;;;;;;;;5016048;28;20038;-73
2022/04/22 00:19:34;;;;;;;28.50;20.35;;;;;;;;;;5015309;28;20037;-75
2022/04/22 00:22:03;;;;;;;28.30;20.52;;;;;;;;;;5015804;28;20079;-72
2022/04/22 00:24:30;;;;;;;26.85;19.95;;;;;;;;;;5016007;28;20416;-74
2022/04/22 00:27:01;;;;;;;25.85;18.85;;;;;;;;;;5015437;28;20049;-73
2022/04/22 00:29:33;;;;;;;21.52;16.50;;;;;;;;;;5015574;28;20037;-74
2022/04/22 00:32:03;;;;;;;21.98;15.50;;;;;;;;;;5015305;28;20077;-73
2022/04/22 00:34:33;;;;;;;20.35;15.35;;;;;;;;;;5015147;28;20132;-73
2022/04/22 00:37:06;;;;;;;18.85;14.75;;;;;;;;;;5015430;28;20046;-73
2022/04/22 00:39:35;;;;;;;20.20;15.15;;;;;;;;;;5015279;28;20038;-73
2022/04/22 00:42:10;;;;;;;19.27;14.77;;;;;;;;;;5015022;28;20539;-73
2022/04/22 00:44:40;;;;;;;21.63;15.50;;;;;;;;;;5015389;28;20077;-73
2022/04/22 00:47:11;;;;;;;18.42;14.95;;;;;;;;;;5015150;28;20042;-73
2022/04/22 00:49:44;;;;;;;19.55;15.13;;;;;;;;;;5015589;28;20100;-74
2022/04/22 00:52:37;;;;;;;21.35;16.67;;;;;;;;;;5015309;28;20069;-73
2022/04/22 00:55:06;;;;;;;22.17;17.40;;;;;;;;;;4997601;28;20046;-72
2022/04/22 00:57:58;;;;;;;24.13;17.58;;;;;;;;;;5014811;28;20052;-73
2022/04/22 01:00:51;;;;;;;24.25;18.67;;;;;;;;;;5014966;28;20073;-75
2022/04/22 01:03:23;;;;;;;23.73;18.25;;;;;;;;;;5014891;28;20041;-73
2022/04/22 01:11:35;;;;;;;22.73;17.85;;;;;;;;;;5014791;28;20042;-73
2022/04/22 01:14:05;;;;;;;22.63;17.10;;;;;;;;;;5014653;28;20038;-73
2022/04/22 01:19:57;;;;;;;21.98;15.65;;;;;;;;;;5014968;28;20412;-75
2022/04/22 01:22:27;;;;;;;21.77;15.80;;;;;;;;;;5014967;28;20077;-72
2022/04/22 01:24:55;;;;;;;20.80;16.88;;;;;;;;;;5014148;28;20038;-73
2022/04/22 01:27:36;;;;;;;25.00;17.65;;;;;;;;;;5014071;28;20408;-75
2022/04/22 01:30:20;;;;;;;24.35;16.58;;;;;;;;;;5014109;28;20042;-74
2022/04/22 01:33:12;;;;;;;20.55;15.82;;;;;;;;;;5013918;28;20061;-74
2022/04/22 01:35:45;;;;;;;23.67;16.13;;;;;;;;;;4994671;28;20482;-74
2022/04/22 01:38:18;;;;;;;21.80;15.80;;;;;;;;;;4994184;28;20049;-74
2022/04/22 01:40:49;;;;;;;20.40;16.65;;;;;;;;;;4994474;28;20061;-74
2022/04/22 01:43:26;;;;;;;21.00;16.63;;;;;;;;;;4994391;28;20042;-74
2022/04/22 01:45:54;;;;;;;19.75;15.07;;;;;;;;;;4994367;28;20497;-74
2022/04/22 01:48:24;;;;;;;20.42;15.43;;;;;;;;;;4994246;28;20042;-74
2022/04/22 01:51:05;;;;;;;19.88;14.60;;;;;;;;;;4993255;28;20054;-74
2022/04/22 01:53:40;;;;;;;19.55;14.73;;;;;;;;;;4994453;28;20034;-74
2022/04/22 01:56:32;;;;;;;17.83;14.77;;;;;;;;;;4993858;28;20082;-74
2022/04/22 01:59:00;;;;;;;17.70;13.63;;;;;;;;;;4993969;28;20122;-74
2022/04/22 02:01:32;;;;;;;17.13;14.68;;;;;;;;;;4993894;28;20511;-74
2022/04/22 02:04:09;;;;;;;21.75;14.65;;;;;;;;;;4994453;28;20046;-74
2022/04/22 02:06:38;;;;;;;19.58;14.30;;;;;;;;;;4994193;28;20457;-74
2022/04/22 02:09:08;;;;;;;17.98;15.40;;;;;;;;;;4994060;28;20493;-74
2022/04/22 02:11:36;;;;;;;21.17;15.18;;;;;;;;;;4994330;28;20097;-74
2022/04/22 02:14:14;;;;;;;19.05;13.90;;;;;;;;;;4993765;28;20046;-74
2022/04/22 02:16:42;;;;;;;19.50;15.38;;;;;;;;;;4994528;28;20042;-74
2022/04/22 02:19:09;;;;;;;20.60;14.73;;;;;;;;;;4992973;28;20493;-74
2022/04/22 02:21:39;;;;;;;18.98;15.18;;;;;;;;;;4994047;28;20076;-74
2022/04/22 02:24:09;;;;;;;18.05;14.02;;;;;;;;;;4993951;28;20034;-74
2022/04/22 02:29:49;;;;;;;18.52;14.88;;;;;;;;;;4993527;28;20129;-74
2022/04/22 02:32:21;;;;;;;21.08;14.75;;;;;;;;;;4994006;28;20118;-75
2022/04/22 02:34:54;;;;;;;17.83;14.45;;;;;;;;;;5007588;28;20054;-73
2022/04/22 02:37:22;;;;;;;20.63;14.45;;;;;;;;;;5013347;28;20073;-73
2022/04/22 02:39:49;;;;;;;18.80;14.93;;;;;;;;;;5013267;28;20048;-73
2022/04/22 02:48:18;;;;;;;19.77;14.45;;;;;;;;;;5017377;28;20492;-74
2022/04/22 02:50:48;;;;;;;20.95;14.82;;;;;;;;;;5017494;28;20112;-74
2022/04/22 02:53:17;;;;;;;18.70;13.95;;;;;;;;;;5017545;28;20087;-74
2022/04/22 02:55:52;;;;;;;17.83;14.25;;;;;;;;;;5017121;28;20510;-73
2022/04/22 02:58:25;;;;;;;23.60;15.90;;;;;;;;;;5017705;28;20045;-74
2022/04/22 03:00:53;;;;;;;29.90;17.27;;;;;;;;;;5017008;28;20149;-74
2022/04/22 03:03:46;;;;;;;46.50;24.55;;;;;;;;;;5016965;28;20038;-74
2022/04/22 03:06:44;;;;;;;40.47;23.48;;;;;;;;;;5017158;28;20065;-74
2022/04/22 03:09:37;;;;;;;51.95;28.48;;;;;;;;;;5016762;28;20080;-74
2022/04/22 03:12:29;;;;;;;48.72;25.67;;;;;;;;;;5017219;28;20133;-74
2022/04/22 03:14:57;;;;;;;39.63;24.00;;;;;;;;;;5017674;28;20046;-74
2022/04/22 03:17:30;;;;;;;29.13;18.70;;;;;;;;;;5016795;28;20053;-74
2022/04/22 03:19:57;;;;;;;27.65;17.65;;;;;;;;;;5016879;28;20483;-74
2022/04/22 03:22:26;;;;;;;20.98;14.40;;;;;;;;;;5016747;28;20092;-74
2022/04/22 03:24:57;;;;;;;18.30;12.10;;;;;;;;;;5016769;28;20076;-74
2022/04/22 03:27:27;;;;;;;18.00;11.55;;;;;;;;;;5016599;28;20455;-73
2022/04/22 03:29:57;;;;;;;14.35;10.90;;;;;;;;;;5016703;28;20042;-74
2022/04/22 03:32:26;;;;;;;10.82;9.70;;;;;;;;;;5016789;28;20405;-74
2022/04/22 03:34:56;;;;;;;16.58;13.38;;;;;;;;;;5016439;28;20045;-74
2022/04/22 03:37:28;;;;;;;15.00;12.20;;;;;;;;;;5016523;28;20045;-74
2022/04/22 03:40:03;;;;;;;14.48;9.85;;;;;;;;;;5016973;28;20104;-74
2022/04/22 03:42:35;;;;;;;12.68;11.20;;;;;;;;;;5016675;28;20038;-73
2022/04/22 03:45:03;;;;;;;17.52;11.95;;;;;;;;;;5016633;28;20106;-72
2022/04/22 03:47:36;;;;;;;14.38;12.63;;;;;;;;;;5016548;28;20049;-72
2022/04/22 03:50:04;;;;;;;19.50;12.52;;;;;;;;;;5016318;28;20088;-72
2022/04/22 03:52:34;;;;;;;14.15;11.23;;;;;;;;;;5014774;28;20052;-72
2022/04/22 03:55:06;;;;;;;13.98;9.45;;;;;;;;;;5016396;28;20045;-72
2022/04/22 03:58:17;;;;;;;12.02;9.00;;;;;;;;;;5015964;28;20535;-72
2022/04/22 04:00:26;;;;;;;11.38;7.93;;;;;;;;;;5005732;28;20516;-72
2022/04/22 04:03:02;;;;;;;10.55;8.93;;;;;;;;;;5015779;28;20049;-73
2022/04/22 04:05:55;;;;;;;11.73;9.55;;;;;;;;;;5016059;28;20053;-72
2022/04/22 04:15:57;;;;;;;12.85;9.15;;;;;;;;;;5016207;28;20380;-73
2022/04/22 04:17:41;;;;;;;13.23;9.85;;;;;;;;;;4975518;28;20370;-73
2022/04/22 04:23:22;;;;;;;15.25;12.15;;;;;;;;;;5014824;28;20046;-74
2022/04/22 04:25:51;;;;;;;15.35;11.43;;;;;;;;;;5010964;28;20046;-75
2022/04/22 04:28:27;;;;;;;14.07;10.98;;;;;;;;;;5014717;28;20116;-74
2022/04/22 04:31:11;;;;;;;13.13;11.10;;;;;;;;;;4997600;28;20562;-74
2022/04/22 04:33:39;;;;;;;11.18;8.13;;;;;;;;;;4999085;28;20058;-68
2022/04/22 04:36:09;;;;;;;9.75;8.50;;;;;;;;;;5015094;28;20049;-68
2022/04/22 04:38:38;;;;;;;10.48;8.45;;;;;;;;;;5015277;28;20044;-68
2022/04/22 04:41:30;;;;;;;11.63;8.55;;;;;;;;;;5015250;28;20046;-68
2022/04/22 04:44:00;;;;;;;12.70;10.98;;;;;;;;;;5015591;28;20141;-68
2022/04/22 04:46:28;;;;;;;12.60;10.50;;;;;;;;;;5015299;28;20076;-68
2022/04/22 04:49:21;;;;;;;12.52;10.10;;;;;;;;;;5015012;28;20034;-68
2022/04/22 04:51:52;;;;;;;13.88;9.13;;;;;;;;;;5014972;28;20496;-68
2022/04/22 04:54:26;;;;;;;11.65;9.40;;;;;;;;;;5015026;28;20121;-68
2022/04/22 04:56:54;;;;;;;11.93;8.70;;;;;;;;;;5014935;28;20041;-69
2022/04/22 04:59:26;;;;;;;12.40;8.85;;;;;;;;;;5014802;28;20060;-67
2022/04/22 05:05:48;;;;;;;25.45;16.00;;;;;;;;;;4994492;28;20078;-67
2022/04/22 05:08:43;;;;;;;18.02;12.48;;;;;;;;;;4998206;28;20092;-67
2022/04/22 05:11:16;;;;;;;14.88;11.20;;;;;;;;;;5012801;28;20045;-67
2022/04/22 05:13:52;;;;;;;15.80;11.35;;;;;;;;;;5014078;28;20070;-67
2022/04/22 05:16:20;;;;;;;20.10;14.98;;;;;;;;;;5009730;28;20080;-67
2022/04/22 05:18:49;;;;;;;22.33;16.38;;;;;;;;;;5005640;28;20120;-67
2022/04/22 05:21:20;;;;;;;24.90;15.93;;;;;;;;;;5011174;28;20046;-68
2022/04/22 05:23:49;;;;;;;18.05;13.73;;;;;;;;;;5014199;28;20499;-67
2022/04/22 05:26:16;;;;;;;21.92;17.45;;;;;;;;;;5014129;28;20552;-68
2022/04/22 05:28:50;;;;;;;27.05;20.38;;;;;;;;;;5014479;28;20045;-68
2022/04/22 05:34:04;;;;;;;34.83;29.52;;;;;;;;;;5013774;28;20108;-67
2022/04/22 05:36:33;;;;;;;40.25;35.78;;;;;;;;;;5013326;28;20476;-67
2022/04/22 05:39:08;;;;;;;39.40;34.83;;;;;;;;;;5014048;28;20038;-66
2022/04/22 05:41:36;;;;;;;70.30;60.80;;;;;;;;;;5012979;28;20081;-66
2022/04/22 05:44:05;;;;;;;46.90;40.88;;;;;;;;;;5013742;28;20050;-66
2022/04/22 05:46:33;;;;;;;39.05;30.83;;;;;;;;;;5013588;28;20108;-66
2022/04/22 05:49:01;;;;;;;28.50;22.85;;;;;;;;;;5013737;28;20042;-67
2022/04/22 05:51:28;;;;;;;34.10;27.38;;;;;;;;;;5013603;28;20054;-67
2022/04/22 05:53:57;;;;;;;35.33;28.52;;;;;;;;;;5013981;28;20034;-67
2022/04/22 05:56:29;;;;;;;37.53;26.70;;;;;;;;;;5014071;28;20077;-67
2022/04/22 05:59:06;;;;;;;50.00;42.38;;;;;;;;;;5013687;28;20100;-67
2022/04/22 06:01:34;;;;;;;57.05;47.38;;;;;;;;;;5013656;28;20046;-66
2022/04/22 06:04:27;;;;;;;52.17;43.00;;;;;;;;;;5014035;28;20041;-66
2022/04/22 06:06:57;;;;;;;53.10;40.53;;;;;;;;;;5013459;28;20112;-68
2022/04/22 06:12:16;;;;;;;33.08;25.13;;;;;;;;;;5013179;28;20045;-66
2022/04/22 06:14:46;;;;;;;30.38;23.00;;;;;;;;;;5013885;28;20377;-66
2022/04/22 06:17:16;;;;;;;28.98;22.50;;;;;;;;;;5012642;28;20096;-65
2022/04/22 06:19:46;;;;;;;26.55;20.17;;;;;;;;;;5013742;28;20042;-66
2022/04/22 06:22:14;;;;;;;29.05;22.25;;;;;;;;;;5013518;28;20077;-66
2022/04/22 06:24:44;;;;;;;28.27;21.48;;;;;;;;;;4995643;28;20444;-66
2022/04/22 06:27:23;;;;;;;27.83;22.38;;;;;;;;;;5013678;28;20128;-68
2022/04/22 06:29:57;;;;;;;35.15;26.27;;;;;;;;;;5013441;28;20091;-67
2022/04/22 06:32:27;;;;;;;30.90;24.25;;;;;;;;;;5013589;28;20096;-66
2022/04/22 06:34:58;;;;;;;31.67;24.02;;;;;;;;;;5013210;28;20072;-66
2022/04/22 06:37:25;;;;;;;29.52;23.15;;;;;;;;;;5013313;28;20042;-66
2022/04/22 06:48:18;;;;;;;27.95;21.15;;;;;;;;;;4993632;28;20053;-67
2022/04/22 06:51:06;;;;;;;27.13;21.38;;;;;;;;;;5006693;28;20038;-67
2022/04/22 06:53:37;;;;;;;27.92;21.48;;;;;;;;;;5012883;28;20530;-67
2022/04/22 06:56:06;;;;;;;25.67;20.98;;;;;;;;;;5008835;28;20049;-67
2022/04/22 06:59:00;;;;;;;29.45;23.00;;;;;;;;;;5012288;28;20042;-68
2022/04/22 07:01:29;;;;;;;25.35;21.40;;;;;;;;;;5011780;28;20125;-67
2022/04/22 07:04:13;;;;;;;32.28;25.88;;;;;;;;;;5013579;28;20404;-68
2022/04/22 07:06:42;;;;;;;25.58;21.08;;;;;;;;;;5011175;28;20038;-68
2022/04/22 07:09:12;;;;;;;23.52;17.70;;;;;;;;;;5013219;28;20088;-68
2022/04/22 07:11:43;;;;;;;23.58;18.95;;;;;;;;;;5012544;28;20125;-68
2022/04/22 07:14:12;;;;;;;26.02;19.75;;;;;;;;;;5005683;28;20460;-68
2022/04/22 07:16:44;;;;;;;30.98;21.08;;;;;;;;;;5012733;28;20053;-68
2022/04/22 07:19:12;;;;;;;28.35;20.23;;;;;;;;;;5013122;28;20038;-68
2022/04/22 07:21:40;;;;;;;23.30;17.52;;;;;;;;;;5012970;28;20041;-68
2022/04/22 07:24:09;;;;;;;22.00;17.30;;;;;;;;;;5012825;28;20507;-68
2022/04/22 07:26:38;;;;;;;22.25;18.33;;;;;;;;;;5012858;28;20046;-68
2022/04/22 07:29:13;;;;;;;21.02;16.15;;;;;;;;;;5016737;28;20061;-68
2022/04/22 07:31:42;;;;;;;;;;;;;;;;;;5016888;28;20042;-69
2022/04/22 07:34:10;;;;;;;19.38;14.15;;;;;;;;;;5016220;28;19956;-68
2022/04/22 07:36:38;;;;;;;18.15;13.13;;;;;;;;;;4999683;28;20045;-68
2022/04/22 07:39:06;;;;;;;18.15;13.48;;;;;;;;;;5016793;28;20416;-68
2022/04/22 07:41:38;;;;;;;19.73;14.32;;;;;;;;;;5016250;28;20447;-69
2022/04/22 07:46:58;;;;;;;17.80;13.23;;;;;;;;;;5016221;28;20095;-69
2022/04/22 07:49:27;;;;;;;15.02;12.43;;;;;;;;;;5015819;28;20045;-69
2022/04/22 07:51:55;;;;;;;14.98;13.07;;;;;;;;;;5016254;28;20042;-69
2022/04/22 07:54:26;;;;;;;14.60;12.40;;;;;;;;;;5015601;28;20475;-69
2022/04/22 07:56:53;;;;;;;15.20;12.80;;;;;;;;;;5015722;28;20038;-68
2022/04/22 07:59:24;;;;;;;16.23;13.35;;;;;;;;;;5015711;28;20124;-68
2022/04/22 08:01:55;;;;;;;18.83;13.77;;;;;;;;;;5016178;28;20488;-68
2022/04/22 08:04:22;;;;;;;15.77;13.40;;;;;;;;;;5015843;28;20121;-68
2022/04/22 08:06:50;;;;;;;17.13;12.38;;;;;;;;;;5015595;28;20129;-68
2022/04/22 08:09:39;;;;;;;16.63;11.02;;;;;;;;;;5016277;28;20064;-68
2022/04/22 08:12:19;;;;;;;12.65;9.60;;;;;;;;;;5015707;28;20134;-68
2022/04/22 08:14:47;;;;;;;11.85;9.23;;;;;;;;;;5015767;28;20050;-68
2022/04/22 08:17:16;;;;;;;9.43;8.40;;;;;;;;;;5015647;28;20053;-68
2022/04/22 08:19:48;;;;;;;10.15;7.95;;;;;;;;;;5016079;28;20457;-69
2022/04/22 08:22:17;;;;;;;8.95;7.35;;;;;;;;;;5015415;28;20457;-69
2022/04/22 08:24:45;;;;;;;8.40;6.93;;;;;;;;;;5015338;28;20041;-69
2022/04/22 08:27:14;;;;;;;9.70;7.32;;;;;;;;;;4995902;28;20063;-67
2022/04/22 08:29:44;;;;;;;13.43;6.85;;;;;;;;;;4995971;28;20038;-69
2022/04/22 08:32:14;;;;;;;11.38;7.35;;;;;;;;;;5012240;28;20038;-68
2022/04/22 08:34:44;;;;;;;10.40;8.02;;;;;;;;;;5015119;28;20416;-68
2022/04/22 08:37:12;;;;;;;10.57;7.60;;;;;;;;;;5005629;28;20204;-68
2022/04/22 08:39:41;;;;;;;8.38;6.90;;;;;;;;;;4994726;28;20054;-68
2022/04/22 08:42:12;;;;;;;11.00;8.27;;;;;;;;;;5003128;28;20044;-72
2022/04/22 08:45:02;;;;;;;7.97;6.55;;;;;;;;;;5010403;28;20049;-70
2022/04/22 08:50:22;;;;;;;8.95;7.25;;;;;;;;;;4996602;28;20408;-69
2022/04/22 08:53:03;;;;;;;8.60;6.60;;;;;;;;;;4995728;28;20503;-71
2022/04/22 08:55:34;;;;;;;8.98;5.85;;;;;;;;;;4977788;28;20061;-70
2022/04/22 08:58:05;;;;;;;7.95;6.22;;;;;;;;;;4995063;28;20146;-70
2022/04/22 09:00:41;;;;;;;7.03;6.25;;;;;;;;;;4994988;28;20120;-72
2022/04/22 09:03:12;;;;;;;7.18;6.03;;;;;;;;;;4995168;28;20038;-69
2022/04/22 09:05:42;;;;;;;6.97;5.57;;;;;;;;;;4995544;28;20054;-69
2022/04/22 09:08:10;;;;;;;7.10;5.07;;;;;;;;;;4994659;28;20043;-68
2022/04/22 09:10:40;;;;;;;6.57;5.13;;;;;;;;;;4995135;28;20414;-69
2022/04/22 09:13:10;;;;;;;7.40;4.57;;;;;;;;;;4999618;28;20050;-69
2022/04/22 09:15:41;;;;;;;9.40;6.25;;;;;;;;;;5013438;28;20072;-72
2022/04/22 09:18:30;;;;;;;7.53;5.82;;;;;;;;;;5013351;28;20042;-69
2022/04/22 09:21:02;;;;;;;7.63;5.32;;;;;;;;;;5014220;28;20045;-70
2022/04/22 09:23:32;;;;;;;10.55;6.60;;;;;;;;;;4986836;28;20491;-70
2022/04/22 09:26:01;;;;;;;9.40;6.53;;;;;;;;;;4977240;28;20553;-70
2022/04/22 09:28:33;;;;;;;9.15;5.53;;;;;;;;;;4994693;28;20117;-70
2022/04/22 09:31:02;;;;;;;8.73;6.45;;;;;;;;;;4994970;28;20073;-69
2022/04/22 09:33:35;;;;;;;7.68;6.32;;;;;;;;;;4976875;28;20396;-69
2022/04/22 09:44:27;;;;;;;7.40;5.90;;;;;;;;;;5013548;28;20046;-70
2022/04/22 09:47:15;;;;;;;9.43;6.15;;;;;;;;;;5014169;28;20038;-68
2022/04/22 09:49:48;;;;;;;7.45;6.25;;;;;;;;;;5013878;28;20037;-68
2022/04/22 09:52:24;;;;;;;11.57;6.78;;;;;;;;;;5014004;28;20113;-71
2022/04/22 09:55:01;;;;;;;6.82;5.60;;;;;;;;;;4996392;28;20041;-71
2022/04/22 09:57:52;;;;;;;6.68;5.20;;;;;;;;;;5013597;28;20038;-72
2022/04/22 10:00:25;;;;;;;7.25;6.00;;;;;;;;;;5013357;28;20104;-71
2022/04/22 10:02:53;;;;;;;7.97;5.18;;;;;;;;;;5013420;28;20096;-71
2022/04/22 10:05:23;;;;;;;10.70;6.20;;;;;;;;;;5013613;28;20042;-72
2022/04/22 10:08:00;;;;;;;10.23;6.30;;;;;;;;;;5013575;28;20069;-72
2022/04/22 10:10:39;;;;;;;7.07;4.60;;;;;;;;;;5013595;28;20467;-71
2022/04/22 10:13:08;;;;;;;5.13;4.05;;;;;;;;;;4997592;28;20081;-71
2022/04/22 10:15:40;;;;;;;7.65;4.50;;;;;;;;;;4993568;28;20046;-71
2022/04/22 10:18:15;;;;;;;9.30;4.88;;;;;;;;;;4993763;28;20501;-71
2022/04/22 10:20:46;;;;;;;8.10;4.75;;;;;;;;;;4976474;28;20045;-71
2022/04/22 10:23:22;;;;;;;7.97;5.28;;;;;;;;;;4993694;28;20085;-69
2022/04/22 10:25:51;;;;;;;9.02;5.57;;;;;;;;;;4993529;28;20066;-69
2022/04/22 10:28:21;;;;;;;6.50;4.32;;;;;;;;;;4996206;28;20049;-69
2022/04/22 10:30:50;;;;;;;8.25;5.10;;;;;;;;;;5012933;28;20044;-69
2022/04/22 10:33:18;;;;;;;7.40;4.45;;;;;;;;;;5006350;28;20077;-69
2022/04/22 10:35:47;;;;;;;9.65;4.95;;;;;;;;;;4993683;28;20046;-69
2022/04/22 10:38:27;;;;;;;8.73;4.70;;;;;;;;;;4996918;28;20073;-70
2022/04/22 10:40:56;;;;;;;8.02;5.10;;;;;;;;;;4993845;28;20052;-69
2022/04/22 10:43:27;;;;;;;8.68;5.47;;;;;;;;;;4993864;28;20047;-69
2022/04/22 10:49:04;;;;;;;7.78;5.55;;;;;;;;;;4954164;28;20086;-71
2022/04/22 10:51:51;;;;;;;9.93;5.53;;;;;;;;;;4995831;28;20125;-70
2022/04/22 10:54:20;;;;;;;9.13;4.93;;;;;;;;;;4993382;28;20042;-72
2022/04/22 10:56:49;;;;;;;9.27;5.15;;;;;;;;;;4993489;28;20118;-70
2022/04/22 10:59:21;;;;;;;9.23;5.40;;;;;;;;;;4993259;28;20062;-71
2022/04/22 11:01:52;;;;;;;8.07;4.63;;;;;;;;;;4993081;28;20069;-71
2022/04/22 11:04:23;;;;;;;8.10;4.50;;;;;;;;;;4995957;28;20046;-71
2022/04/22 11:06:51;;;;;;;7.32;4.57;;;;;;;;;;4996797;28;20089;-71
2022/04/22 11:09:30;;;;;;;9.38;4.60;;;;;;;;;;4997587;28;20051;-70
2022/04/22 11:12:10;;;;;;;11.43;5.68;;;;;;;;;;4997218;28;20046;-70
2022/04/22 11:14:47;;;;;;;10.50;5.07;;;;;;;;;;4997270;28;20097;-70
2022/04/22 11:17:44;;;;;;;11.50;6.03;;;;;;;;;;4996975;28;20141;-71
2022/04/22 11:20:15;;;;;;;10.63;5.75;;;;;;;;;;4997069;28;20035;-70
2022/04/22 11:25:58;;;;;;;12.88;5.25;;;;;;;;;;4996964;28;20101;-72
2022/04/22 11:28:27;;;;;;;10.02;4.40;;;;;;;;;;5011707;28;20476;-71
2022/04/22 11:30:54;;;;;;;13.77;5.10;;;;;;;;;;5016450;28;20057;-71
2022/04/22 11:33:27;;;;;;;9.23;4.30;;;;;;;;;;5014970;28;20054;-72
2022/04/22 11:36:00;;;;;;;11.07;5.28;;;;;;;;;;5014377;28;20084;-71
2022/04/22 11:38:28;;;;;;;7.13;5.32;;;;;;;;;;5015970;28;20049;-71
2022/04/22 11:40:57;;;;;;;11.90;6.20;;;;;;;;;;5016033;28;20492;-69
2022/04/22 11:43:28;;;;;;;9.55;5.47;;;;;;;;;;5015970;28;20073;-71
2022/04/22 11:45:56;;;;;;;11.23;5.20;;;;;;;;;;5015878;28;20069;-69
2022/04/22 11:48:24;;;;;;;11.68;5.47;;;;;;;;;;5016055;28;20119;-73
2022/04/22 11:50:53;;;;;;;12.02;5.93;;;;;;;;;;5016076;28;20038;-68
2022/04/22 11:53:26;;;;;;;11.40;5.47;;;;;;;;;;5016077;28;20047;-69
2022/04/22 11:55:55;;;;;;;11.48;5.80;;;;;;;;;;5016072;28;20511;-68
2022/04/22 11:58:29;;;;;;;8.35;4.65;;;;;;;;;;5015495;28;20046;-69
2022/04/22 12:06:42;;;;;;;12.80;9.23;;;;;;;;;;4978380;28;20046;-68
2022/04/22 12:09:11;;;;;;;15.30;6.45;;;;;;;;;;4996605;28;20397;-68
2022/04/22 12:11:41;;;;;;;12.30;6.22;;;;;;;;;;4995999;28;20102;-68
2022/04/22 12:14:11;;;;;;;11.15;5.35;;;;;;;;;;5002641;28;20100;-68
2022/04/22 12:16:42;;;;;;;11.27;5.47;;;;;;;;;;5015744;28;20068;-69
2022/04/22 12:19:11;;;;;;;9.75;4.57;;;;;;;;;;5016140;28;20046;-69
2022/04/22 12:21:40;;;;;;;13.73;4.90;;;;;;;;;;5015487;28;20049;-69
2022/04/22 12:24:15;;;;;;;10.90;5.00;;;;;;;;;;5015696;28;20053;-68
2022/04/22 12:26:45;;;;;;;8.77;4.73;;;;;;;;;;5015553;28;20049;-69
2022/04/22 12:29:18;;;;;;;9.30;4.80;;;;;;;;;;5015168;28;20306;-69
2022/04/22 12:32:01;;;;;;;10.15;4.68;;;;;;;;;;5015369;28;20030;-68
2022/04/22 12:34:31;;;;;;;10.35;5.40;;;;;;;;;;5015208;28;20054;-68
2022/04/22 12:37:00;;;;;;;9.90;5.63;;;;;;;;;;4996417;28;20052;-68
2022/04/22 12:39:41;;;;;;;12.77;5.05;;;;;;;;;;4995677;28;20467;-68
2022/04/22 12:42:18;;;;;;;8.95;4.95;;;;;;;;;;5001261;28;20096;-68
2022/04/22 12:52:08;;;;;;;13.77;5.40;;;;;;;;;;4997561;28;20047;-68
2022/04/22 12:53:34;;;;;;;10.32;5.70;;;;;;;;;;5015035;28;20050;-68
2022/04/22 12:56:08;;;;;;;9.15;5.25;;;;;;;;;;5015139;28;20125;-68
2022/04/22 12:58:51;;;;;;;13.93;7.85;;;;;;;;;;5014950;28;20045;-68
2022/04/22 13:01:30;;;;;;;10.60;5.38;;;;;;;;;;5015013;28;20121;-68
2022/04/22 13:03:58;;;;;;;9.77;5.00;;;;;;;;;;5014610;28;20095;-67
2022/04/22 13:06:37;;;;;;;8.02;4.63;;;;;;;;;;5014750;28;20038;-67
2022/04/22 13:09:07;;;;;;;9.32;4.70;;;;;;;;;;5000798;28;20050;-67
2022/04/22 13:11:35;;;;;;;8.00;4.70;;;;;;;;;;4994801;28;20046;-67
2022/04/22 13:14:12;;;;;;;9.20;4.82;;;;;;;;;;4995194;28;20129;-69
2022/04/22 13:16:42;;;;;;;11.55;5.00;;;;;;;;;;4994751;28;20046;-69
2022/04/22 13:19:12;;;;;;;9.38;5.32;;;;;;;;;;4995075;28;20050;-69
2022/04/22 13:21:40;;;;;;;9.65;5.45;;;;;;;;;;4994956;28;20420;-69
2022/04/22 13:24:10;;;;;;;8.88;4.72;;;;;;;;;;4995004;28;20069;-69
2022/04/22 13:26:39;;;;;;;10.85;5.05;;;;;;;;;;4994511;28;20049;-69
2022/04/22 13:29:08;;;;;;;12.65;5.32;;;;;;;;;;4994566;28;20042;-68
2022/04/22 13:31:37;;;;;;;11.73;5.72;;;;;;;;;;4994636;28;20133;-69
2022/04/22 13:34:05;;;;;;;8.48;4.65;;;;;;;;;;4994485;28;20058;-68
2022/04/22 13:36:35;;;;;;;10.70;3.80;;;;;;;;;;4994476;28;20038;-68
2022/04/22 13:39:04;;;;;;;11.90;3.90;;;;;;;;;;4994489;28;20045;-68
2022/04/22 13:41:33;;;;;;;11.30;3.45;;;;;;;;;;4994545;28;20042;-69
2022/04/22 13:44:07;;;;;;;14.55;4.25;;;;;;;;;;4994578;28;20069;-69
2022/04/22 13:52:25;;;;;;;10.52;4.22;;;;;;;;;;5008405;28;20058;-69
2022/04/22 13:54:55;;;;;;;8.98;3.35;;;;;;;;;;5006105;28;20126;-69
2022/04/22 13:57:23;;;;;;;9.07;4.00;;;;;;;;;;4996004;28;20552;-68
2022/04/22 13:59:50;;;;;;;13.25;3.75;;;;;;;;;;5011000;28;20042;-68
2022/04/22 14:02:18;;;;;;;8.88;3.30;;;;;;;;;;5011101;28;20528;-67
2022/04/22 14:04:48;;;;;;;9.57;3.60;;;;;;;;;;5013587;28;20073;-68
2022/04/22 14:07:15;;;;;;;9.15;3.70;;;;;;;;;;5013780;28;20365;-68
2022/04/22 14:09:44;;;;;;;9.20;3.53;;;;;;;;;;5014011;28;20041;-69
2022/04/22 14:12:13;;;;;;;10.82;4.07;;;;;;;;;;5013836;28;20133;-69
2022/04/22 14:14:42;;;;;;;11.00;3.40;;;;;;;;;;5013754;28;20061;-68
2022/04/22 14:17:12;;;;;;;9.15;4.22;;;;;;;;;;5013803;28;20400;-68
2022/04/22 14:19:40;;;;;;;10.32;4.65;;;;;;;;;;5007516;28;20476;-69
2022/04/22 14:22:32;;;;;;;9.45;3.97;;;;;;;;;;4996167;28;20045;-68
2022/04/22 14:27:59;;;;;;;12.63;5.03;;;;;;;;;;4993941;28;20042;-68
2022/04/22 14:30:26;;;;;;;12.93;4.35;;;;;;;;;;4993210;28;20057;-69
2022/04/22 14:33:02;;;;;;;14.05;5.32;;;;;;;;;;4994078;28;20371;-69
2022/04/22 14:35:34;;;;;;;10.73;4.43;;;;;;;;;;4993268;28;20054;-68
2022/04/22 14:38:03;;;;;;;8.63;3.50;;;;;;;;;;4992743;28;20097;-69
2022/04/22 14:40:33;;;;;;;11.98;3.92;;;;;;;;;;4994231;28;20046;-68
2022/04/22 14:43:02;;;;;;;12.05;4.10;;;;;;;;;;4993869;28;20093;-70
2022/04/22 14:45:31;;;;;;;11.98;4.72;;;;;;;;;;4993515;28;20404;-69
2022/04/22 14:48:00;;;;;;;12.05;5.45;;;;;;;;;;4993662;28;20038;-69
2022/04/22 14:50:31;;;;;;;10.65;4.75;;;;;;;;;;4993790;28;20057;-69
2022/04/22 14:53:00;;;;;;;10.57;4.72;;;;;;;;;;4993739;28;20146;-69
2022/04/22 14:55:27;;;;;;;8.85;4.05;;;;;;;;;;5006855;28;20042;-70
2022/04/22 14:57:55;;;;;;;12.27;5.00;;;;;;;;;;5010587;28;20109;-68
2022/04/22 15:00:22;;;;;;;12.02;4.95;;;;;;;;;;5009987;28;20034;-68
2022/04/22 15:02:50;;;;;;;9.32;4.50;;;;;;;;;;5012788;28;20129;-69
2022/04/22 15:05:18;;;;;;;12.95;4.28;;;;;;;;;;4992470;28;20392;-69
2022/04/22 15:07:47;;;;;;;13.02;5.53;;;;;;;;;;5000475;28;20057;-70
2022/04/22 15:10:17;;;;;;;11.73;6.05;;;;;;;;;;5013017;28;20054;-69
2022/04/22 15:12:45;;;;;;;13.00;5.75;;;;;;;;;;5012545;28;20054;-70
2022/04/22 15:15:13;;;;;;;7.65;3.95;;;;;;;;;;5010189;28;20045;-70
2022/04/22 15:26:24;;;;;;;10.68;4.38;;;;;;;;;;4989487;28;20543;-70
2022/04/22 15:28:52;;;;;;;9.65;4.05;;;;;;;;;;4995619;28;20042;-69
2022/04/22 15:31:22;;;;;;;11.00;3.47;;;;;;;;;;4993667;28;20054;-69
2022/04/22 15:33:49;;;;;;;11.35;3.70;;;;;;;;;;4998910;28;20050;-69
2022/04/22 15:36:20;;;;;;;9.02;3.65;;;;;;;;;;4959145;28;20069;-69
2022/04/22 15:38:49;;;;;;;7.88;3.55;;;;;;;;;;4997890;28;20044;-69
2022/04/22 15:41:20;;;;;;;6.55;3.50;;;;;;;;;;4992838;28;20053;-69
2022/04/22 15:43:52;;;;;;;8.30;3.70;;;;;;;;;;4993002;28;20122;-70
2022/04/22 15:46:23;;;;;;;8.68;3.47;;;;;;;;;;4993363;28;20121;-70
2022/04/22 15:48:52;;;;;;;9.82;3.63;;;;;;;;;;4994435;28;20054;-72
2022/04/22 15:51:21;;;;;;;9.55;3.40;;;;;;;;;;4996483;28;20058;-70
2022/04/22 15:53:49;;;;;;;8.93;3.78;;;;;;;;;;4996559;28;20454;-70
2022/04/22 15:56:19;;;;;;;10.95;3.70;;;;;;;;;;4996706;28;20045;-68
2022/04/22 15:58:50;;;;;;;7.57;3.25;;;;;;;;;;4995980;28;20481;-68
2022/04/22 16:01:18;;;;;;;9.52;3.63;;;;;;;;;;4998921;28;20093;-68
2022/04/22 16:03:50;;;;;;;9.13;3.05;;;;;;;;;;5002717;28;20034;-70
2022/04/22 16:06:20;;;;;;;10.68;3.20;;;;;;;;;;5006712;28;20152;-69
2022/04/22 16:08:51;;;;;;;7.20;3.45;;;;;;;;;;5016064;28;20040;-70
2022/04/22 16:17:12;;;;;;;7.20;3.33;;;;;;;;;;5016299;28;20137;-69
2022/04/22 16:19:55;;;;;;;8.60;3.40;;;;;;;;;;5015328;28;20038;-69
2022/04/22 16:22:22;;;;;;;5.72;2.65;;;;;;;;;;5015276;28;20040;-69
2022/04/22 16:24:58;;;;;;;9.00;3.08;;;;;;;;;;5015979;28;20034;-69
2022/04/22 16:27:27;;;;;;;10.75;3.08;;;;;;;;;;5015598;28;20066;-68
2022/04/22 16:30:01;;;;;;;9.20;3.20;;;;;;;;;;5015465;28;20412;-68
2022/04/22 16:32:29;;;;;;;6.88;3.10;;;;;;;;;;5015539;28;20451;-68
2022/04/22 16:34:57;;;;;;;6.70;3.17;;;;;;;;;;5001272;28;20058;-68
2022/04/22 16:37:26;;;;;;;9.43;3.63;;;;;;;;;;4999665;28;20045;-68
2022/04/22 16:39:53;;;;;;;7.25;3.80;;;;;;;;;;4999342;28;20038;-68